sensor_id;sensor_type;location;lat;lon;timestamp;P1;durP1;ratioP1;P2;durP2;ratioP2
13218;SDS011;6674;49.152;11.918;2023-05-07T00:00:37;2.70;;;2.50;;
13218;SDS011;6674;49.152;11.918;2023-05-07T00:03:05;2.93;;;2.63;;
13218;SDS011;6674;49.152;11.918;2023-05-07T00:05:32;3.13;;;2.90;;
13218;SDS011;6674;49.152;11.918;2023-05-07T00:07:58;2.60;;;2.40;;
13218;SDS011;6674;49.152;11.918;2023-05-07T00:10:25;3.70;;;3.07;;
13218;SDS011;6674;49.152;11.918;2023-05-07T00:12:52;2.73;;;2.53;;
13218;SDS011;6674;49.152;11.918;2023-05-07T00:15:19;2.93;;;2.70;;
13218;SDS011;6674;49.152;11.918;2023-05-07T00:17:47;2.53;;;2.33;;
13218;SDS011;6674;49.152;11.918;2023-05-07T00:20:14;2.30;;;2.20;;
13218;SDS011;6674;49.152;11.918;2023-05-07T00:22:41;2.60;;;2.40;;
13218;SDS011;6674;49.152;11.918;2023-05-07T00:25:07;2.50;;;2.40;;
13218;SDS011;6674;49.152;11.918;2023-05-07T00:27:35;2.80;;;2.57;;
13218;SDS011;6674;49.152;11.918;2023-05-07T00:30:02;2.97;;;2.77;;
13218;SDS011;6674;49.152;11.918;2023-05-07T00:32:28;2.77;;;2.57;;
13218;SDS011;6674;49.152;11.918;2023-05-07T00:34:56;2.90;;;2.70;;
13218;SDS011;6674;49.152;11.918;2023-05-07T00:37:23;2.70;;;2.50;;
13218;SDS011;6674;49.152;11.918;2023-05-07T00:39:50;2.10;;;2.00;;
13218;SDS011;6674;49.152;11.918;2023-05-07T00:42:17;3.20;;;2.90;;
13218;SDS011;6674;49.152;11.918;2023-05-07T00:44:43;2.13;;;2.03;;
13218;SDS011;6674;49.152;11.918;2023-05-07T00:47:10;2.20;;;2.10;;
13218;SDS011;6674;49.152;11.918;2023-05-07T00:49:38;2.60;;;2.40;;
13218;SDS011;6674;49.152;11.918;2023-05-07T00:52:07;2.20;;;2.00;;
13218;SDS011;6674;49.152;11.918;2023-05-07T00:54:37;2.90;;;2.70;;
13218;SDS011;6674;49.152;11.918;2023-05-07T00:57:03;2.40;;;2.30;;
13218;SDS011;6674;49.152;11.918;2023-05-07T00:59:31;2.60;;;2.40;;
13218;SDS011;6674;49.152;11.918;2023-05-07T01:01:58;2.93;;;2.60;;
13218;SDS011;6674;49.152;11.918;2023-05-07T01:04:25;2.20;;;2.10;;
13218;SDS011;6674;49.152;11.918;2023-05-07T01:06:53;2.50;;;2.30;;
13218;SDS011;6674;49.152;11.918;2023-05-07T01:09:23;2.50;;;2.40;;
13218;SDS011;6674;49.152;11.918;2023-05-07T01:11:51;2.60;;;2.40;;
13218;SDS011;6674;49.152;11.918;2023-05-07T01:14:19;2.73;;;2.53;;
13218;SDS011;6674;49.152;11.918;2023-05-07T01:16:46;3.10;;;2.80;;
13218;SDS011;6674;49.152;11.918;2023-05-07T01:19:13;3.10;;;2.90;;
13218;SDS011;6674;49.152;11.918;2023-05-07T01:21:43;2.77;;;2.57;;
13218;SDS011;6674;49.152;11.918;2023-05-07T01:24:14;2.90;;;2.70;;
13218;SDS011;6674;49.152;11.918;2023-05-07T01:26:42;2.77;;;2.57;;
13218;SDS011;6674;49.152;11.918;2023-05-07T01:29:09;3.23;;;3.03;;
13218;SDS011;6674;49.152;11.918;2023-05-07T01:31:36;2.77;;;2.57;;
13218;SDS011;6674;49.152;11.918;2023-05-07T01:34:04;3.10;;;2.90;;
13218;SDS011;6674;49.152;11.918;2023-05-07T01:36:33;2.70;;;2.50;;
13218;SDS011;6674;49.152;11.918;2023-05-07T01:39:01;2.90;;;2.70;;
13218;SDS011;6674;49.152;11.918;2023-05-07T01:41:29;3.27;;;3.00;;
13218;SDS011;6674;49.152;11.918;2023-05-07T01:43:56;3.17;;;2.97;;
13218;SDS011;6674;49.152;11.918;2023-05-07T01:46:25;3.20;;;3.00;;
13218;SDS011;6674;49.152;11.918;2023-05-07T01:48:52;3.03;;;2.83;;
13218;SDS011;6674;49.152;11.918;2023-05-07T01:51:19;3.53;;;3.23;;
13218;SDS011;6674;49.152;11.918;2023-05-07T01:53:47;3.43;;;3.20;;
13218;SDS011;6674;49.152;11.918;2023-05-07T01:56:15;3.23;;;2.93;;
13218;SDS011;6674;49.152;11.918;2023-05-07T01:58:43;3.03;;;2.73;;
13218;SDS011;6674;49.152;11.918;2023-05-07T02:01:10;3.10;;;2.90;;
13218;SDS011;6674;49.152;11.918;2023-05-07T02:03:37;3.70;;;3.40;;
13218;SDS011;6674;49.152;11.918;2023-05-07T02:06:04;3.23;;;3.00;;
13218;SDS011;6674;49.152;11.918;2023-05-07T02:08:31;3.20;;;3.00;;
13218;SDS011;6674;49.152;11.918;2023-05-07T02:10:57;3.47;;;3.20;;
13218;SDS011;6674;49.152;11.918;2023-05-07T02:13:25;3.23;;;3.03;;
13218;SDS011;6674;49.152;11.918;2023-05-07T02:15:54;3.13;;;2.93;;
13218;SDS011;6674;49.152;11.918;2023-05-07T02:18:21;3.30;;;3.10;;
13218;SDS011;6674;49.152;11.918;2023-05-07T02:20:48;3.73;;;3.40;;
13218;SDS011;6674;49.152;11.918;2023-05-07T02:23:14;3.67;;;3.40;;
13218;SDS011;6674;49.152;11.918;2023-05-07T02:25:41;3.60;;;3.30;;
13218;SDS011;6674;49.152;11.918;2023-05-07T02:28:08;3.80;;;3.50;;
13218;SDS011;6674;49.152;11.918;2023-05-07T02:30:35;3.90;;;3.60;;
13218;SDS011;6674;49.152;11.918;2023-05-07T02:33:04;3.47;;;3.27;;
13218;SDS011;6674;49.152;11.918;2023-05-07T02:35:31;3.70;;;3.40;;
13218;SDS011;6674;49.152;11.918;2023-05-07T02:37:58;3.90;;;3.60;;
13218;SDS011;6674;49.152;11.918;2023-05-07T02:40:24;4.10;;;3.80;;
13218;SDS011;6674;49.152;11.918;2023-05-07T02:42:51;4.20;;;3.90;;
13218;SDS011;6674;49.152;11.918;2023-05-07T02:45:18;4.30;;;3.90;;
13218;SDS011;6674;49.152;11.918;2023-05-07T02:47:44;3.80;;;3.50;;
13218;SDS011;6674;49.152;11.918;2023-05-07T02:50:13;3.80;;;3.50;;
13218;SDS011;6674;49.152;11.918;2023-05-07T02:52:39;4.10;;;3.70;;
13218;SDS011;6674;49.152;11.918;2023-05-07T02:55:06;3.77;;;3.47;;
13218;SDS011;6674;49.152;11.918;2023-05-07T02:57:33;4.40;;;4.10;;
13218;SDS011;6674;49.152;11.918;2023-05-07T03:00:07;4.50;;;4.10;;
13218;SDS011;6674;49.152;11.918;2023-05-07T03:02:36;4.13;;;3.83;;
13218;SDS011;6674;49.152;11.918;2023-05-07T03:05:03;4.20;;;3.90;;
13218;SDS011;6674;49.152;11.918;2023-05-07T03:07:32;4.10;;;3.80;;
13218;SDS011;6674;49.152;11.918;2023-05-07T03:09:59;4.60;;;4.20;;
13218;SDS011;6674;49.152;11.918;2023-05-07T03:12:26;4.07;;;3.77;;
13218;SDS011;6674;49.152;11.918;2023-05-07T03:14:52;4.53;;;4.13;;
13218;SDS011;6674;49.152;11.918;2023-05-07T03:17:19;4.53;;;4.13;;
13218;SDS011;6674;49.152;11.918;2023-05-07T03:19:46;5.00;;;4.50;;
13218;SDS011;6674;49.152;11.918;2023-05-07T03:22:13;5.13;;;4.70;;
13218;SDS011;6674;49.152;11.918;2023-05-07T03:24:41;5.30;;;4.83;;
13218;SDS011;6674;49.152;11.918;2023-05-07T03:27:11;5.20;;;4.80;;
13218;SDS011;6674;49.152;11.918;2023-05-07T03:29:38;5.50;;;5.00;;
13218;SDS011;6674;49.152;11.918;2023-05-07T03:32:05;5.13;;;4.57;;
13218;SDS011;6674;49.152;11.918;2023-05-07T03:34:31;5.13;;;4.73;;
13218;SDS011;6674;49.152;11.918;2023-05-07T03:36:58;5.27;;;4.87;;
13218;SDS011;6674;49.152;11.918;2023-05-07T03:39:25;4.90;;;4.50;;
13218;SDS011;6674;49.152;11.918;2023-05-07T03:41:53;4.83;;;4.43;;
13218;SDS011;6674;49.152;11.918;2023-05-07T03:44:19;4.47;;;4.07;;
13218;SDS011;6674;49.152;11.918;2023-05-07T03:46:46;5.20;;;4.80;;
13218;SDS011;6674;49.152;11.918;2023-05-07T03:49:13;5.53;;;5.03;;
13218;SDS011;6674;49.152;11.918;2023-05-07T03:51:40;5.83;;;5.33;;
13218;SDS011;6674;49.152;11.918;2023-05-07T03:54:06;5.63;;;5.23;;
13218;SDS011;6674;49.152;11.918;2023-05-07T03:56:33;5.80;;;5.30;;
13218;SDS011;6674;49.152;11.918;2023-05-07T03:59:02;5.23;;;4.83;;
13218;SDS011;6674;49.152;11.918;2023-05-07T04:01:29;5.50;;;5.00;;
13218;SDS011;6674;49.152;11.918;2023-05-07T04:03:55;5.27;;;4.87;;
13218;SDS011;6674;49.152;11.918;2023-05-07T04:06:22;5.30;;;4.90;;
13218;SDS011;6674;49.152;11.918;2023-05-07T04:08:49;5.00;;;4.60;;
13218;SDS011;6674;49.152;11.918;2023-05-07T04:11:16;5.40;;;5.00;;
13218;SDS011;6674;49.152;11.918;2023-05-07T04:13:42;5.10;;;4.70;;
13218;SDS011;6674;49.152;11.918;2023-05-07T04:16:10;5.97;;;5.40;;
13218;SDS011;6674;49.152;11.918;2023-05-07T04:18:37;5.33;;;4.87;;
13218;SDS011;6674;49.152;11.918;2023-05-07T04:21:04;5.37;;;4.97;;
13218;SDS011;6674;49.152;11.918;2023-05-07T04:23:30;5.57;;;5.17;;
13218;SDS011;6674;49.152;11.918;2023-05-07T04:25:57;5.70;;;5.17;;
13218;SDS011;6674;49.152;11.918;2023-05-07T04:28:24;6.37;;;5.83;;
13218;SDS011;6674;49.152;11.918;2023-05-07T04:30:51;6.07;;;5.57;;
13218;SDS011;6674;49.152;11.918;2023-05-07T04:33:19;6.27;;;5.77;;
13218;SDS011;6674;49.152;11.918;2023-05-07T04:35:45;7.37;;;6.67;;
13218;SDS011;6674;49.152;11.918;2023-05-07T04:38:12;6.90;;;6.40;;
13218;SDS011;6674;49.152;11.918;2023-05-07T04:40:39;7.37;;;6.80;;
13218;SDS011;6674;49.152;11.918;2023-05-07T04:43:06;7.20;;;6.60;;
13218;SDS011;6674;49.152;11.918;2023-05-07T04:45:34;6.73;;;6.23;;
13218;SDS011;6674;49.152;11.918;2023-05-07T04:48:01;5.73;;;5.23;;
13218;SDS011;6674;49.152;11.918;2023-05-07T04:50:29;6.37;;;5.77;;
13218;SDS011;6674;49.152;11.918;2023-05-07T04:52:56;6.83;;;6.07;;
13218;SDS011;6674;49.152;11.918;2023-05-07T04:55:23;5.80;;;5.40;;
13218;SDS011;6674;49.152;11.918;2023-05-07T04:57:49;6.80;;;6.20;;
13218;SDS011;6674;49.152;11.918;2023-05-07T05:00:16;6.67;;;5.97;;
13218;SDS011;6674;49.152;11.918;2023-05-07T05:02:44;6.70;;;6.20;;
13218;SDS011;6674;49.152;11.918;2023-05-07T05:05:11;6.73;;;6.13;;
13218;SDS011;6674;49.152;11.918;2023-05-07T05:07:39;6.90;;;6.30;;
13218;SDS011;6674;49.152;11.918;2023-05-07T05:10:06;6.83;;;6.23;;
13218;SDS011;6674;49.152;11.918;2023-05-07T05:12:34;7.13;;;6.53;;
13218;SDS011;6674;49.152;11.918;2023-05-07T05:15:01;7.37;;;6.77;;
13218;SDS011;6674;49.152;11.918;2023-05-07T05:17:27;7.60;;;7.10;;
13218;SDS011;6674;49.152;11.918;2023-05-07T05:19:54;7.53;;;6.93;;
13218;SDS011;6674;49.152;11.918;2023-05-07T05:22:21;7.20;;;6.60;;
13218;SDS011;6674;49.152;11.918;2023-05-07T05:24:49;7.27;;;6.67;;
13218;SDS011;6674;49.152;11.918;2023-05-07T05:27:16;7.33;;;6.73;;
13218;SDS011;6674;49.152;11.918;2023-05-07T05:29:42;8.63;;;7.80;;
13218;SDS011;6674;49.152;11.918;2023-05-07T05:32:09;8.87;;;8.07;;
13218;SDS011;6674;49.152;11.918;2023-05-07T05:34:36;7.73;;;7.03;;
13218;SDS011;6674;49.152;11.918;2023-05-07T05:37:02;7.87;;;7.17;;
13218;SDS011;6674;49.152;11.918;2023-05-07T05:39:29;7.93;;;7.23;;
13218;SDS011;6674;49.152;11.918;2023-05-07T05:41:57;8.13;;;7.33;;
13218;SDS011;6674;49.152;11.918;2023-05-07T05:44:24;7.73;;;7.13;;
13218;SDS011;6674;49.152;11.918;2023-05-07T05:46:50;8.23;;;7.53;;
13218;SDS011;6674;49.152;11.918;2023-05-07T05:49:20;7.40;;;6.80;;
13218;SDS011;6674;49.152;11.918;2023-05-07T05:51:46;9.13;;;8.43;;
13218;SDS011;6674;49.152;11.918;2023-05-07T05:54:13;9.70;;;8.80;;
13218;SDS011;6674;49.152;11.918;2023-05-07T05:56:40;8.37;;;7.67;;
13218;SDS011;6674;49.152;11.918;2023-05-07T05:59:08;7.90;;;7.30;;
13218;SDS011;6674;49.152;11.918;2023-05-07T06:01:34;8.43;;;7.70;;
13218;SDS011;6674;49.152;11.918;2023-05-07T06:04:01;7.23;;;6.63;;
13218;SDS011;6674;49.152;11.918;2023-05-07T06:06:28;8.17;;;7.40;;
13218;SDS011;6674;49.152;11.918;2023-05-07T06:08:54;8.10;;;7.40;;
13218;SDS011;6674;49.152;11.918;2023-05-07T06:11:21;8.93;;;8.13;;
13218;SDS011;6674;49.152;11.918;2023-05-07T06:13:48;9.47;;;8.50;;
13218;SDS011;6674;49.152;11.918;2023-05-07T06:16:17;8.50;;;7.80;;
13218;SDS011;6674;49.152;11.918;2023-05-07T06:18:43;8.37;;;7.67;;
13218;SDS011;6674;49.152;11.918;2023-05-07T06:21:11;8.83;;;8.13;;
13218;SDS011;6674;49.152;11.918;2023-05-07T06:23:39;8.70;;;8.00;;
13218;SDS011;6674;49.152;11.918;2023-05-07T06:26:06;9.30;;;8.50;;
13218;SDS011;6674;49.152;11.918;2023-05-07T06:28:40;8.37;;;7.67;;
13218;SDS011;6674;49.152;11.918;2023-05-07T06:31:13;9.60;;;8.70;;
13218;SDS011;6674;49.152;11.918;2023-05-07T06:33:42;7.83;;;7.23;;
13218;SDS011;6674;49.152;11.918;2023-05-07T06:36:09;8.83;;;8.03;;
13218;SDS011;6674;49.152;11.918;2023-05-07T06:38:37;8.07;;;7.37;;
13218;SDS011;6674;49.152;11.918;2023-05-07T06:41:05;7.93;;;7.23;;
13218;SDS011;6674;49.152;11.918;2023-05-07T06:43:32;9.07;;;8.27;;
13218;SDS011;6674;49.152;11.918;2023-05-07T06:45:59;8.77;;;8.07;;
13218;SDS011;6674;49.152;11.918;2023-05-07T06:48:26;9.73;;;8.93;;
13218;SDS011;6674;49.152;11.918;2023-05-07T06:50:54;8.10;;;7.47;;
13218;SDS011;6674;49.152;11.918;2023-05-07T06:53:22;9.17;;;8.47;;
13218;SDS011;6674;49.152;11.918;2023-05-07T06:55:49;7.90;;;7.20;;
13218;SDS011;6674;49.152;11.918;2023-05-07T06:58:17;8.10;;;7.23;;
13218;SDS011;6674;49.152;11.918;2023-05-07T07:00:43;8.73;;;7.93;;
13218;SDS011;6674;49.152;11.918;2023-05-07T07:03:10;8.70;;;7.90;;
13218;SDS011;6674;49.152;11.918;2023-05-07T07:05:37;7.93;;;7.23;;
13218;SDS011;6674;49.152;11.918;2023-05-07T07:08:05;8.00;;;7.30;;
13218;SDS011;6674;49.152;11.918;2023-05-07T07:10:32;8.10;;;7.50;;
13218;SDS011;6674;49.152;11.918;2023-05-07T07:12:59;8.87;;;8.03;;
13218;SDS011;6674;49.152;11.918;2023-05-07T07:15:27;7.80;;;7.20;;
13218;SDS011;6674;49.152;11.918;2023-05-07T07:17:54;7.57;;;6.97;;
13218;SDS011;6674;49.152;11.918;2023-05-07T07:20:21;7.83;;;7.20;;
13218;SDS011;6674;49.152;11.918;2023-05-07T07:22:48;7.50;;;6.90;;
13218;SDS011;6674;49.152;11.918;2023-05-07T07:25:16;8.13;;;7.43;;
13218;SDS011;6674;49.152;11.918;2023-05-07T07:27:43;8.70;;;7.93;;
13218;SDS011;6674;49.152;11.918;2023-05-07T07:30:10;8.33;;;7.63;;
13218;SDS011;6674;49.152;11.918;2023-05-07T07:32:36;7.77;;;7.17;;
13218;SDS011;6674;49.152;11.918;2023-05-07T07:35:04;7.40;;;6.80;;
13218;SDS011;6674;49.152;11.918;2023-05-07T07:37:31;7.47;;;6.87;;
13218;SDS011;6674;49.152;11.918;2023-05-07T07:39:57;8.17;;;7.47;;
13218;SDS011;6674;49.152;11.918;2023-05-07T07:42:25;7.47;;;6.87;;
13218;SDS011;6674;49.152;11.918;2023-05-07T07:44:52;8.10;;;7.40;;
13218;SDS011;6674;49.152;11.918;2023-05-07T07:47:19;8.87;;;7.97;;
13218;SDS011;6674;49.152;11.918;2023-05-07T07:49:45;7.07;;;6.47;;
13218;SDS011;6674;49.152;11.918;2023-05-07T07:52:12;7.93;;;7.33;;
13218;SDS011;6674;49.152;11.918;2023-05-07T07:54:39;6.73;;;6.23;;
13218;SDS011;6674;49.152;11.918;2023-05-07T07:57:05;8.37;;;7.57;;
13218;SDS011;6674;49.152;11.918;2023-05-07T07:59:33;7.43;;;6.73;;
13218;SDS011;6674;49.152;11.918;2023-05-07T08:02:00;7.43;;;6.70;;
13218;SDS011;6674;49.152;11.918;2023-05-07T08:04:27;7.00;;;6.50;;
13218;SDS011;6674;49.152;11.918;2023-05-07T08:06:53;7.50;;;6.90;;
13218;SDS011;6674;49.152;11.918;2023-05-07T08:09:21;6.80;;;6.23;;
13218;SDS011;6674;49.152;11.918;2023-05-07T08:11:47;7.30;;;6.70;;
13218;SDS011;6674;49.152;11.918;2023-05-07T08:14:14;6.13;;;5.63;;
13218;SDS011;6674;49.152;11.918;2023-05-07T08:16:43;6.53;;;6.03;;
13218;SDS011;6674;49.152;11.918;2023-05-07T08:19:11;6.77;;;6.17;;
13218;SDS011;6674;49.152;11.918;2023-05-07T08:21:39;6.13;;;5.63;;
13218;SDS011;6674;49.152;11.918;2023-05-07T08:24:06;6.67;;;6.17;;
13218;SDS011;6674;49.152;11.918;2023-05-07T08:26:33;6.40;;;5.83;;
13218;SDS011;6674;49.152;11.918;2023-05-07T08:29:01;6.90;;;6.30;;
13218;SDS011;6674;49.152;11.918;2023-05-07T08:31:27;7.77;;;7.07;;
13218;SDS011;6674;49.152;11.918;2023-05-07T08:33:55;6.20;;;5.80;;
13218;SDS011;6674;49.152;11.918;2023-05-07T08:36:22;7.03;;;6.47;;
13218;SDS011;6674;49.152;11.918;2023-05-07T08:38:49;6.27;;;5.77;;
13218;SDS011;6674;49.152;11.918;2023-05-07T08:41:16;6.47;;;5.97;;
13218;SDS011;6674;49.152;11.918;2023-05-07T08:43:42;6.73;;;6.13;;
13218;SDS011;6674;49.152;11.918;2023-05-07T08:46:15;6.73;;;6.23;;
13218;SDS011;6674;49.152;11.918;2023-05-07T08:48:43;6.63;;;6.17;;
13218;SDS011;6674;49.152;11.918;2023-05-07T08:51:13;6.30;;;5.80;;
13218;SDS011;6674;49.152;11.918;2023-05-07T08:53:41;6.50;;;6.00;;
13218;SDS011;6674;49.152;11.918;2023-05-07T08:56:08;6.90;;;6.33;;
13218;SDS011;6674;49.152;11.918;2023-05-07T08:58:35;6.57;;;6.07;;
13218;SDS011;6674;49.152;11.918;2023-05-07T09:01:03;5.90;;;5.40;;
13218;SDS011;6674;49.152;11.918;2023-05-07T09:03:33;6.97;;;6.47;;
13218;SDS011;6674;49.152;11.918;2023-05-07T09:06:01;6.40;;;5.90;;
13218;SDS011;6674;49.152;11.918;2023-05-07T09:08:29;6.97;;;6.37;;
13218;SDS011;6674;49.152;11.918;2023-05-07T09:10:58;5.90;;;5.40;;
13218;SDS011;6674;49.152;11.918;2023-05-07T09:13:25;5.90;;;5.40;;
13218;SDS011;6674;49.152;11.918;2023-05-07T09:15:53;6.40;;;5.90;;
13218;SDS011;6674;49.152;11.918;2023-05-07T09:18:19;5.87;;;5.40;;
13218;SDS011;6674;49.152;11.918;2023-05-07T09:20:46;6.27;;;5.67;;
13218;SDS011;6674;49.152;11.918;2023-05-07T09:23:13;6.07;;;5.57;;
13218;SDS011;6674;49.152;11.918;2023-05-07T09:25:42;7.27;;;6.67;;
13218;SDS011;6674;49.152;11.918;2023-05-07T09:28:09;6.43;;;5.93;;
13218;SDS011;6674;49.152;11.918;2023-05-07T09:30:37;6.40;;;5.90;;
13218;SDS011;6674;49.152;11.918;2023-05-07T09:33:03;6.50;;;5.90;;
13218;SDS011;6674;49.152;11.918;2023-05-07T09:35:30;7.07;;;6.47;;
13218;SDS011;6674;49.152;11.918;2023-05-07T09:37:58;6.63;;;6.03;;
13218;SDS011;6674;49.152;11.918;2023-05-07T09:40:29;4.90;;;4.50;;
13218;SDS011;6674;49.152;11.918;2023-05-07T09:43:07;5.27;;;4.87;;
13218;SDS011;6674;49.152;11.918;2023-05-07T09:45:35;5.27;;;4.87;;
13218;SDS011;6674;49.152;11.918;2023-05-07T09:48:03;5.57;;;5.17;;
13218;SDS011;6674;49.152;11.918;2023-05-07T09:50:32;5.30;;;4.90;;
13218;SDS011;6674;49.152;11.918;2023-05-07T09:53:03;5.63;;;5.23;;
13218;SDS011;6674;49.152;11.918;2023-05-07T09:55:30;5.97;;;5.40;;
13218;SDS011;6674;49.152;11.918;2023-05-07T09:57:57;5.73;;;5.33;;
13218;SDS011;6674;49.152;11.918;2023-05-07T10:00:26;5.23;;;4.83;;
13218;SDS011;6674;49.152;11.918;2023-05-07T10:02:55;4.97;;;4.67;;
13218;SDS011;6674;49.152;11.918;2023-05-07T10:05:23;5.10;;;4.70;;
13218;SDS011;6674;49.152;11.918;2023-05-07T10:07:51;5.00;;;4.60;;
13218;SDS011;6674;49.152;11.918;2023-05-07T10:10:20;5.97;;;5.47;;
13218;SDS011;6674;49.152;11.918;2023-05-07T10:12:47;5.37;;;4.97;;
13218;SDS011;6674;49.152;11.918;2023-05-07T10:15:15;5.23;;;4.83;;
13218;SDS011;6674;49.152;11.918;2023-05-07T10:17:44;5.27;;;4.77;;
13218;SDS011;6674;49.152;11.918;2023-05-07T10:20:11;5.07;;;4.57;;
13218;SDS011;6674;49.152;11.918;2023-05-07T10:22:39;5.40;;;4.90;;
13218;SDS011;6674;49.152;11.918;2023-05-07T10:25:09;5.30;;;4.87;;
13218;SDS011;6674;49.152;11.918;2023-05-07T10:27:42;5.33;;;4.93;;
13218;SDS011;6674;49.152;11.918;2023-05-07T10:30:12;5.27;;;4.73;;
13218;SDS011;6674;49.152;11.918;2023-05-07T10:32:49;5.33;;;4.83;;
13218;SDS011;6674;49.152;11.918;2023-05-07T10:35:18;5.10;;;4.70;;
13218;SDS011;6674;49.152;11.918;2023-05-07T10:37:49;4.90;;;4.50;;
13218;SDS011;6674;49.152;11.918;2023-05-07T10:40:17;4.87;;;4.47;;
13218;SDS011;6674;49.152;11.918;2023-05-07T10:42:54;4.70;;;4.30;;
13218;SDS011;6674;49.152;11.918;2023-05-07T10:45:22;4.87;;;4.47;;
13218;SDS011;6674;49.152;11.918;2023-05-07T10:48:07;4.20;;;3.90;;
13218;SDS011;6674;49.152;11.918;2023-05-07T10:50:36;4.63;;;4.33;;
13218;SDS011;6674;49.152;11.918;2023-05-07T10:53:22;4.37;;;4.07;;
13218;SDS011;6674;49.152;11.918;2023-05-07T10:55:52;4.13;;;3.83;;
13218;SDS011;6674;49.152;11.918;2023-05-07T10:58:52;3.90;;;3.60;;
13218;SDS011;6674;49.152;11.918;2023-05-07T11:04:17;4.67;;;4.30;;
13218;SDS011;6674;49.152;11.918;2023-05-07T11:10:01;4.87;;;4.50;;
13218;SDS011;6674;49.152;11.918;2023-05-07T11:15:33;4.00;;;3.70;;
13218;SDS011;6674;49.152;11.918;2023-05-07T11:18:00;3.50;;;3.30;;
13218;SDS011;6674;49.152;11.918;2023-05-07T11:20:45;4.20;;;3.80;;
13218;SDS011;6674;49.152;11.918;2023-05-07T11:26:27;5.10;;;4.70;;
13218;SDS011;6674;49.152;11.918;2023-05-07T11:28:55;3.90;;;3.60;;
13218;SDS011;6674;49.152;11.918;2023-05-07T11:31:22;3.30;;;3.10;;
13218;SDS011;6674;49.152;11.918;2023-05-07T11:33:51;3.77;;;3.47;;
13218;SDS011;6674;49.152;11.918;2023-05-07T11:36:21;3.33;;;3.13;;
13218;SDS011;6674;49.152;11.918;2023-05-07T11:38:49;3.10;;;2.90;;
13218;SDS011;6674;49.152;11.918;2023-05-07T11:41:16;3.17;;;2.97;;
13218;SDS011;6674;49.152;11.918;2023-05-07T11:43:57;3.20;;;2.90;;
13218;SDS011;6674;49.152;11.918;2023-05-07T11:46:27;3.20;;;2.90;;
13218;SDS011;6674;49.152;11.918;2023-05-07T11:48:54;2.70;;;2.50;;
13218;SDS011;6674;49.152;11.918;2023-05-07T11:51:24;2.30;;;2.10;;
13218;SDS011;6674;49.152;11.918;2023-05-07T11:53:52;3.20;;;2.90;;
13218;SDS011;6674;49.152;11.918;2023-05-07T11:56:19;2.50;;;2.40;;
13218;SDS011;6674;49.152;11.918;2023-05-07T11:58:47;3.20;;;3.00;;
13218;SDS011;6674;49.152;11.918;2023-05-07T12:01:15;3.40;;;3.20;;
13218;SDS011;6674;49.152;11.918;2023-05-07T12:03:43;2.60;;;2.40;;
13218;SDS011;6674;49.152;11.918;2023-05-07T12:06:12;2.90;;;2.70;;
13218;SDS011;6674;49.152;11.918;2023-05-07T12:08:42;3.03;;;2.83;;
13218;SDS011;6674;49.152;11.918;2023-05-07T12:11:09;2.97;;;2.78;;
13218;SDS011;6674;49.152;11.918;2023-05-07T12:13:39;3.05;;;2.85;;
13218;SDS011;6674;49.152;11.918;2023-05-07T12:16:07;2.30;;;2.20;;
13218;SDS011;6674;49.152;11.918;2023-05-07T12:18:34;2.97;;;2.78;;
13218;SDS011;6674;49.152;11.918;2023-05-07T12:21:03;2.90;;;2.70;;
13218;SDS011;6674;49.152;11.918;2023-05-07T12:23:31;2.63;;;2.42;;
13218;SDS011;6674;49.152;11.918;2023-05-07T12:25:59;2.65;;;2.45;;
13218;SDS011;6674;49.152;11.918;2023-05-07T12:28:26;2.65;;;2.45;;
13218;SDS011;6674;49.152;11.918;2023-05-07T12:30:53;2.95;;;2.67;;
13218;SDS011;6674;49.152;11.918;2023-05-07T12:33:23;2.50;;;2.40;;
13218;SDS011;6674;49.152;11.918;2023-05-07T12:35:50;2.72;;;2.53;;
13218;SDS011;6674;49.152;11.918;2023-05-07T12:38:20;2.45;;;2.30;;
13218;SDS011;6674;49.152;11.918;2023-05-07T12:40:47;2.97;;;2.75;;
13218;SDS011;6674;49.152;11.918;2023-05-07T12:43:17;2.75;;;2.55;;
13218;SDS011;6674;49.152;11.918;2023-05-07T12:45:45;2.20;;;2.10;;
13218;SDS011;6674;49.152;11.918;2023-05-07T12:48:13;2.50;;;2.30;;
13218;SDS011;6674;49.152;11.918;2023-05-07T12:50:40;2.55;;;2.35;;
13218;SDS011;6674;49.152;11.918;2023-05-07T12:53:08;2.13;;;2.03;;
13218;SDS011;6674;49.152;11.918;2023-05-07T12:55:40;2.45;;;2.35;;
13218;SDS011;6674;49.152;11.918;2023-05-07T12:58:08;2.45;;;2.35;;
13218;SDS011;6674;49.152;11.918;2023-05-07T13:00:43;2.33;;;2.13;;
13218;SDS011;6674;49.152;11.918;2023-05-07T13:03:11;2.70;;;2.50;;
13218;SDS011;6674;49.152;11.918;2023-05-07T13:05:38;2.63;;;2.45;;
13218;SDS011;6674;49.152;11.918;2023-05-07T13:08:05;4.20;;;3.40;;
13218;SDS011;6674;49.152;11.918;2023-05-07T13:10:34;4.38;;;3.97;;
13218;SDS011;6674;49.152;11.918;2023-05-07T13:13:01;3.22;;;3.03;;
13218;SDS011;6674;49.152;11.918;2023-05-07T13:15:28;3.53;;;3.30;;
13218;SDS011;6674;49.152;11.918;2023-05-07T13:17:56;3.10;;;2.90;;
13218;SDS011;6674;49.152;11.918;2023-05-07T13:20:22;3.10;;;2.90;;
13218;SDS011;6674;49.152;11.918;2023-05-07T13:22:49;3.78;;;3.50;;
13218;SDS011;6674;49.152;11.918;2023-05-07T13:25:16;3.22;;;3.03;;
13218;SDS011;6674;49.152;11.918;2023-05-07T13:27:43;3.70;;;3.40;;
13218;SDS011;6674;49.152;11.918;2023-05-07T13:30:10;3.80;;;3.50;;
13218;SDS011;6674;49.152;11.918;2023-05-07T13:32:36;3.80;;;3.60;;
13218;SDS011;6674;49.152;11.918;2023-05-07T13:35:05;4.38;;;3.50;;
13218;SDS011;6674;49.152;11.918;2023-05-07T13:37:33;3.72;;;3.42;;
13218;SDS011;6674;49.152;11.918;2023-05-07T13:39:59;4.03;;;3.60;;
13218;SDS011;6674;49.152;11.918;2023-05-07T13:42:26;3.42;;;3.22;;
13218;SDS011;6674;49.152;11.918;2023-05-07T13:44:53;3.78;;;3.47;;
13218;SDS011;6674;49.152;11.918;2023-05-07T13:47:19;4.13;;;3.83;;
13218;SDS011;6674;49.152;11.918;2023-05-07T13:49:46;3.47;;;3.22;;
13218;SDS011;6674;49.152;11.918;2023-05-07T13:52:15;3.30;;;3.10;;
13218;SDS011;6674;49.152;11.918;2023-05-07T13:54:42;3.20;;;2.90;;
13218;SDS011;6674;49.152;11.918;2023-05-07T13:57:09;2.72;;;2.53;;
13218;SDS011;6674;49.152;11.918;2023-05-07T13:59:36;2.83;;;2.50;;
13218;SDS011;6674;49.152;11.918;2023-05-07T14:02:02;3.80;;;3.50;;
13218;SDS011;6674;49.152;11.918;2023-05-07T14:04:30;3.00;;;2.80;;
13218;SDS011;6674;49.152;11.918;2023-05-07T14:06:57;2.90;;;2.70;;
13218;SDS011;6674;49.152;11.918;2023-05-07T14:09:25;3.20;;;3.00;;
13218;SDS011;6674;49.152;11.918;2023-05-07T14:11:52;3.10;;;2.90;;
13218;SDS011;6674;49.152;11.918;2023-05-07T14:14:19;2.80;;;2.60;;
13218;SDS011;6674;49.152;11.918;2023-05-07T14:16:45;3.25;;;3.05;;
13218;SDS011;6674;49.152;11.918;2023-05-07T14:19:12;3.78;;;3.47;;
13218;SDS011;6674;49.152;11.918;2023-05-07T14:21:39;3.80;;;3.50;;
13218;SDS011;6674;49.152;11.918;2023-05-07T14:24:06;3.30;;;3.10;;
13218;SDS011;6674;49.152;11.918;2023-05-07T14:26:35;2.90;;;2.70;;
13218;SDS011;6674;49.152;11.918;2023-05-07T14:29:02;2.92;;;2.72;;
13218;SDS011;6674;49.152;11.918;2023-05-07T14:31:29;3.30;;;3.00;;
13218;SDS011;6674;49.152;11.918;2023-05-07T14:33:55;3.28;;;3.05;;
13218;SDS011;6674;49.152;11.918;2023-05-07T14:36:24;3.17;;;2.97;;
13218;SDS011;6674;49.152;11.918;2023-05-07T14:38:51;3.60;;;3.40;;
13218;SDS011;6674;49.152;11.918;2023-05-07T14:41:19;3.50;;;3.20;;
13218;SDS011;6674;49.152;11.918;2023-05-07T14:43:47;3.53;;;3.22;;
13218;SDS011;6674;49.152;11.918;2023-05-07T14:46:16;3.67;;;3.38;;
13218;SDS011;6674;49.152;11.918;2023-05-07T14:48:43;3.50;;;3.20;;
13218;SDS011;6674;49.152;11.918;2023-05-07T14:51:10;3.53;;;3.33;;
13218;SDS011;6674;49.152;11.918;2023-05-07T14:53:37;3.30;;;3.10;;
13218;SDS011;6674;49.152;11.918;2023-05-07T14:56:04;3.20;;;3.00;;
13218;SDS011;6674;49.152;11.918;2023-05-07T14:58:31;3.27;;;3.07;;
13218;SDS011;6674;49.152;11.918;2023-05-07T15:00:59;3.63;;;3.40;;
13218;SDS011;6674;49.152;11.918;2023-05-07T15:03:26;3.72;;;3.40;;